Nerchinsk, Russia
Current Conditions -  °F | °C
As of 8:00 PM on Wednesday 26 Nov 2014 (Local Time) from UIAA Reporting Station
Clear Clear  
Wind Chill: -13°   Ceiling: Unl
Heat Index:   Visibility: 6mi
Dew Point: -13°   Wind: 9mph
Humidity: 51%   Direction: 200°SSW
Pressure: 29.83"   Gusts: NA
Location:  52°N, 116.55°E
Report Text: UIAA 261100Z 20004MPS 9999 SKC M17/M25 Q1010 NOSIG RMK QFE69929CLRD70
Loading
Personal Weather Stations






























Interactive Weather Map New forecast layout! Learn more

10-Day Weather Forecast

Advertisements
Track Severe Weather on mobile